ADDS METAR Data INFO
IDs: Format: Raw Decoded Include TAF

Data at: 0524 UTC 19 Jan 2018

K0E0 190515Z AUTO 00000KT 10SM CLR M05/M14 A3017 RMK AO2 T10481137
K0E0 190455Z AUTO 00000KT 10SM CLR M07/M15 A3017 RMK AO2 T10661154
K0E0 190435Z AUTO 00000KT 10SM CLR M04/M13 A3017 RMK AO2 T10431135
K0E0 190415Z AUTO 05003KT 10SM CLR M05/M14 A3017 RMK AO2 T10461144
K0E0 190355Z AUTO 08005KT 10SM CLR M04/M14 A3016 RMK AO2 T10431141
K0E0 190335Z AUTO 08004KT 10SM CLR M04/M14 A3017 RMK AO2 T10411140
K0E0 190315Z AUTO 00000KT 10SM CLR M05/M15 A3017 RMK AO2 T10471147
K0E0 190255Z AUTO 00000KT 10SM CLR 01/M12 A3017 RMK AO2 T00091124
K0E0 190235Z AUTO 00000KT 10SM CLR 01/M12 A3017 RMK AO2 T00071122
K0E0 190215Z AUTO 00000KT 10SM CLR 01/M12 A3017 RMK AO2 T00121125
K0E0 190155Z AUTO 17003KT 10SM CLR 01/M13 A3017 RMK AO2 T00091135
K0E0 190135Z AUTO 00000KT 10SM CLR 05/M11 A3017 RMK AO2 T00491110
K0E0 190115Z AUTO 00000KT 10SM CLR 05/M11 A3017 RMK AO2 T00541108
K0E0 190055Z AUTO 27004KT 10SM CLR 07/M11 A3017 RMK AO2 T00651108
K0E0 190035Z AUTO 27004KT 10SM CLR 06/M11 A3017 RMK AO2 T00631107
K0E0 190015Z AUTO 31008KT 10SM CLR 07/M11 A3017 RMK AO2 T00731109
K0E0 182355Z AUTO 32007KT 10SM CLR 10/M10 A3017 RMK AO2 T01001105 10147 20087
K0E0 182335Z AUTO 31007KT 10SM CLR 12/M10 A3017 RMK AO2 T01151103
K0E0 182315Z AUTO 32010KT 10SM CLR 13/M11 A3017 RMK AO2 T01251109
K0E0 182255Z AUTO 31008KT 10SM CLR 14/M13 A3017 RMK AO2 T01371133
K0E0 182235Z AUTO 31009KT 10SM CLR 14/M13 A3016 RMK AO2 T01381132
K0E0 182215Z AUTO 32009KT 10SM CLR 14/M11 A3016 RMK AO2 T01411109
K0E0 182155Z AUTO 32010KT 10SM CLR 14/M11 A3016 RMK AO2 T01441110
K0E0 182135Z AUTO 30009KT 10SM CLR 15/M12 A3016 RMK AO2 T01451116
K0E0 182115Z AUTO 32013G16KT 10SM CLR 15/M14 A3016 RMK AO2 T01461143
K0E0 182055Z AUTO 32011G17KT 10SM CLR 14/M15 A3017 RMK AO2 T01441154
K0E0 182035Z AUTO 32011KT 10SM CLR 14/M14 A3017 RMK AO2 T01411142
K0E0 182015Z AUTO 33011G15KT 10SM CLR 14/M14 A3019 RMK AO2 T01411140
K0E0 181955Z AUTO 34010G16KT 10SM CLR 14/M15 A3020 RMK AO2 T01371155
K0E0 181935Z AUTO 33009KT 10SM CLR 14/M14 A3021 RMK AO2 T01351140
K0E0 181915Z AUTO 31007G14KT 10SM CLR 13/M13 A3023 RMK AO2 T01251132
K0E0 181855Z AUTO 29006KT 10SM CLR 11/M12 A3025 RMK AO2 T01131118
K0E0 181835Z AUTO 32012KT 10SM CLR 11/M10 A3027 RMK AO2 T01061098
K0E0 181815Z AUTO 34006KT 10SM CLR 10/M09 A3029 RMK AO2 T00991093
K0E0 181755Z AUTO 35007KT 10SM CLR 08/M09 A3030 RMK AO2 T00831088 10083 21142
K0E0 181735Z AUTO 34007KT 10SM CLR 08/M09 A3031 RMK AO2 T00751088
K0E0 181715Z AUTO 35007KT 10SM CLR 06/M09 A3031 RMK AO2 T00581091
K0E0 181655Z AUTO 36007KT 10SM CLR 05/M09 A3030 RMK AO2 T00451089
K0E0 181635Z AUTO 36007KT 10SM CLR 03/M09 A3029 RMK AO2 T00251091
K0E0 181615Z AUTO 01007KT 10SM CLR 00/M10 A3029 RMK AO2 T00031101
K0E0 181555Z AUTO 03005KT 10SM CLR M01/M10 A3028 RMK AO2 T10121105
K0E0 181535Z AUTO 36005KT 10SM CLR M02/M10 A3029 RMK AO2 T10251100
K0E0 181515Z AUTO 36003KT 10SM CLR M07/M12 A3028 RMK AO2 T10751118
K0E0 181455Z AUTO 34003KT 10SM CLR M11/M14 A3028 RMK AO2 T11111139
K0E0 181435Z AUTO 01003KT 10SM CLR M14/M16 A3028 RMK AO2 T11391159
K0E0 181415Z AUTO 00000KT 10SM CLR M14/M16 A3027 RMK AO2 T11371157
K0E0 181355Z AUTO 32003KT 10SM CLR M13/M15 A3027 RMK AO2 T11301148
K0E0 181335Z AUTO 05004KT 10SM CLR M13/M15 A3026 RMK AO2 T11281150
K0E0 181315Z AUTO 00000KT 10SM CLR M14/M16 A3027 RMK AO2 T11361158
K0E0 181255Z AUTO 00000KT 10SM CLR M13/M15 A3027 RMK AO2 T11281152
K0E0 181235Z AUTO 03003KT 10SM CLR M12/M14 A3027 RMK AO2 T11161137
K0E0 181215Z AUTO 04004KT 10SM CLR M12/M14 A3027 RMK AO2 T11241144
K0E0 181155Z AUTO 36004KT 10SM CLR M12/M15 A3028 RMK AO2 T11251146 11095 21134
K0E0 181135Z AUTO 03004KT 10SM CLR M12/M14 A3029 RMK AO2 T11211143
K0E0 181115Z AUTO 00000KT 10SM CLR M12/M14 A3030 RMK AO2 T11201140
K0E0 181050Z AUTO 06005KT 10SM CLR M12/M14 A3030 RMK AO2 T11191142
K0E0 181035Z AUTO 04006KT 10SM CLR M12/M15 A3030 RMK AO2 T11211147
K0E0 181015Z AUTO 05006KT 10SM CLR M12/M15 A3030 RMK AO2 T11231149
K0E0 180955Z AUTO 05004KT 10SM CLR M12/M15 A3031 RMK AO2 T11231149
K0E0 180935Z AUTO 00000KT 10SM CLR M13/M15 A3032 RMK AO2 T11271155
K0E0 180915Z AUTO 00000KT 10SM CLR M13/M16 A3032 RMK AO2 T11291160
K0E0 180855Z AUTO 00000KT 10SM CLR M11/M14 A3031 RMK AO2 T11151145
K0E0 180835Z AUTO 00000KT 10SM CLR M11/M15 A3031 RMK AO2 T11151147
K0E0 180815Z AUTO 00000KT 10SM CLR M12/M15 A3030 RMK AO2 T11181147
K0E0 180755Z AUTO 02003KT 10SM CLR M11/M15 A3030 RMK AO2 T11121146
K0E0 180735Z AUTO 00000KT 10SM CLR M12/M15 A3031 RMK AO2 T11181147
K0E0 180715Z AUTO 00000KT 10SM CLR M11/M15 A3032 RMK AO2 T11151151
K0E0 180655Z AUTO 00000KT 10SM CLR M10/M14 A3032 RMK AO2 T11031139
K0E0 180635Z AUTO 00000KT 10SM CLR M11/M15 A3032 RMK AO2 T11131147
K0E0 180615Z AUTO 31005KT 10SM CLR M11/M15 A3032 RMK AO2 T11061146
K0E0 180555Z AUTO 32003KT 10SM CLR M09/M14 A3033 RMK AO2 T10911136 10041 21107 400931175
K0E0 180535Z AUTO 00000KT 10SM CLR M09/M14 A3033 RMK AO2 T10951139
K0E0 180515Z AUTO 33004KT 10SM CLR M10/M14 A3033 RMK AO2 T11021141
K0E0 180455Z AUTO 03004KT 10SM CLR M09/M14 A3032 RMK AO2 T10911137
K0E0 180435Z AUTO 03004KT 10SM CLR M09/M13 A3032 RMK AO2 T10861134
K0E0 180415Z AUTO 03005KT 10SM CLR M08/M13 A3032 RMK AO2 T10801128
K0E0 180355Z AUTO 36005KT 10SM CLR M07/M12 A3032 RMK AO2 T10711123
K0E0 180335Z AUTO 35005KT 10SM CLR M07/M12 A3031 RMK AO2 T10661121
K0E0 180315Z AUTO 33006KT 10SM CLR M07/M12 A3031 RMK AO2 T10661124
K0E0 180255Z AUTO 33004KT 10SM CLR M06/M12 A3031 RMK AO2 T10611121
K0E0 180235Z AUTO 33004KT 10SM CLR M05/M11 A3030 RMK AO2 T10461115
K0E0 180215Z AUTO 00000KT 10SM CLR M02/M10 A3030 RMK AO2 T10231099
K0E0 180155Z AUTO 00000KT 10SM CLR M02/M11 A3030 RMK AO2 T10211107
K0E0 180135Z AUTO 00000KT 10SM CLR M01/M10 A3030 RMK AO2 T10131104
K0E0 180115Z AUTO 05004KT 10SM CLR M01/M11 A3029 RMK AO2 T10151106
K0E0 180055Z AUTO 01006KT 10SM CLR 00/M11 A3029 RMK AO2 T10041110
K0E0 180035Z AUTO 01004KT 10SM CLR 01/M10 A3029 RMK AO2 T00081105
K0E0 180015Z AUTO 01004KT 10SM CLR 03/M10 A3029 RMK AO2 T00271103
K0E0 172355Z AUTO 02006KT 10SM CLR 05/M10 A3029 RMK AO2 T00451100 10093 20029
K0E0 172335Z AUTO 02007KT 10SM CLR 05/M10 A3028 RMK AO2 T00521100
K0E0 172315Z AUTO 01009KT 10SM CLR 06/M10 A3028 RMK AO2 T00591103
K0E0 172255Z AUTO 01010KT 10SM CLR 07/M11 A3027 RMK AO2 T00711109
K0E0 172235Z AUTO 36010G14KT 10SM CLR 08/M12 A3026 RMK AO2 T00841121
K0E0 172215Z AUTO 01007KT 10SM CLR 09/M11 A3026 RMK AO2 T00891111
K0E0 172155Z AUTO 34010G14KT 10SM CLR 09/M11 A3026 RMK AO2 T00881109
K0E0 172135Z AUTO 35009KT 10SM CLR 09/M10 A3026 RMK AO2 T00901105
K0E0 172115Z AUTO 30006KT 10SM CLR 09/M09 A3026 RMK AO2 T00881091
K0E0 172050Z AUTO 36007KT 10SM CLR 08/M10 A3027 RMK AO2 T00811098
K0E0 172035Z AUTO 36007KT 10SM CLR 08/M10 A3027 RMK AO2 T00801098
K0E0 172015Z AUTO 35007KT 10SM CLR 08/M09 A3028 RMK AO2 T00811092
K0E0 171955Z AUTO 34003KT 10SM CLR 07/M09 A3029 RMK AO2 T00741089
K0E0 171935Z AUTO 31008KT 280V340 10SM CLR 07/M09 A3029 RMK AO2 T00691088
K0E0 171915Z AUTO 33006KT 10SM CLR 06/M09 A3031 RMK AO2 T00641088
K0E0 171855Z AUTO 34004KT 10SM CLR 06/M09 A3032 RMK AO2 T00571087
K0E0 171835Z AUTO 33009KT 10SM CLR 05/M09 A3034 RMK AO2 T00491086
K0E0 171810Z AUTO 30010KT 10SM CLR 03/M07 A3035 RMK AO2 T00331075
K0E0 171755Z AUTO 30011KT 10SM CLR 03/M07 A3035 RMK AO2 T00281074 10029 21175
K0E0 171735Z AUTO 30010KT 10SM CLR 03/M07 A3037 RMK AO2 T00261072